METAR Data
IDs: Format: Raw Decoded Include TAF

Data at: 2343 UTC 25 Oct 2021

PALH 252253Z 05006KT 10SM CLR 04/M01 A2906 RMK AO2 SLP842 T00391011
PALH 252153Z 03004KT 10SM CLR 03/M01 A2907 RMK AO2 SLP844 T00331011
PALH 252053Z 03003KT 10SM CLR 02/M01 A2907 RMK AO2 SLP846 T00221006 58006
PALH 251953Z 01005KT 10SM CLR 02/M01 A2908 RMK AO2 SLP849 T00171006
PALH 251853Z 12003KT 10SM CLR 00/M01 A2909 RMK AO2 SLP850 T00001006
PALH 251753Z 12004KT 10SM FEW120 00/M01 A2909 RMK AO2 SLP853 T00001011 10011 20000 55006
PALH 251653Z 05007KT 10SM FEW110 01/M01 A2909 RMK AO2 SLP850 T00111006
PALH 251553Z 02009KT 10SM OVC100 01/M01 A2910 RMK AO2 SLP853 T00111006
PALH 251453Z 02010KT 10SM OVC100 01/00 A2911 RMK AO2 SLP859 T00110000 58015
PALH 251410Z 02008KT 10SM FEW007 OVC090 01/00 A2913 RMK AO2 T00110000
PALH 251353Z 05006KT 10SM OVC090 01/00 A2913 RMK AO2 SLP865 T00110000
PALH 251253Z 03008KT 10SM FEW022 OVC110 01/00 A2914 RMK AO2 SLP868 T00060000
PALH 251153Z 05005KT 10SM OVC110 01/00 A2916 RMK AO2 SLP874 I1001 I6001 T00060000 10017 21006 58018
PALH 251132Z 04007KT 10SM FEW004 BKN110 01/00 A2916 RMK AO2 I1001 T00060000
PALH 251053Z 36004KT 10SM FEW120 00/M01 A2918 RMK AO2 SLP881 T00001011
PALH 250953Z 36003KT 10SM CLR 00/M01 A2920 RMK AO2 SLP888 I1000 T00001006
PALH 250853Z 35004KT 7SM FEW005 00/M01 A2921 RMK AO2 SLP892 I1000 I3000 T00001006 400891006 56016
PALH 250841Z 00000KT 9SM SCT005 00/M01 A2921 RMK AO2 T00001011
PALH 250830Z 00000KT 10SM BKN005 01/00 A2922 RMK AO2 T00060000
PALH 250820Z 00000KT 10SM SCT005 SCT120 01/01 A2922 RMK AO2 T00110006
PALH 250753Z 01003KT 10SM CLR 01/00 A2922 RMK AO2 SLP895 T00110000
PALH 250653Z 00000KT 10SM CLR 01/M01 A2924 RMK AO2 SLP901 T00061006
PALH 250553Z 00000KT 10SM CLR 02/M01 A2926 RMK AO2 SLP908 T00171006 10089 20011 58019
PALH 250453Z 05003KT 10SM CLR 02/01 A2928 RMK AO2 SLP916 T00220006
PALH 250353Z 00000KT 10SM CLR 03/01 A2930 RMK AO2 SLP924 T00280006
PALH 250253Z 00000KT 10SM CLR 04/01 A2931 RMK AO2 SLP927 T00390011 58017
PALH 250153Z 00000KT 10SM CLR 07/02 A2933 RMK AO2 SLP933 T00670017
PALH 250053Z 04005KT 10SM CLR 08/02 A2935 RMK AO2 SLP940 T00780017
PALH 242353Z 00000KT 10SM CLR 09/02 A2936 RMK AO2 SLP944 T00890017 10089 20033 58015
PALH 242253Z 15007KT 10SM SCT090 08/02 A2938 RMK AO2 SLP951 T00780017
PALH 242153Z 16008G15KT 10SM BKN085 08/02 A2940 RMK AO2 SLP957 T00780017
PALH 242053Z 15007KT 110V190 10SM CLR 06/02 A2941 RMK AO2 SLP959 T00610017 58007
PALH 241953Z 09004KT 10SM CLR 04/02 A2942 RMK AO2 SLP963 T00440017
PALH 241853Z 12003KT 10SM FEW110 03/02 A2942 RMK AO2 SLP963 T00330017
PALH 241753Z 00000KT 10SM OVC110 03/02 A2943 RMK AO2 SLP966 T00330022 10033 20028 53007
PALH 241653Z 00000KT 10SM OVC100 03/02 A2942 RMK AO2 SLP962 T00330022
PALH 241553Z 00000KT 10SM OVC095 03/01 A2941 RMK AO2 SLP961 T00330011
PALH 241453Z 17003KT 10SM BKN070 OVC085 03/01 A2941 RMK AO2 SLP959 T00330011 51011
PALH 241353Z 03003KT 10SM OVC060 03/02 A2941 RMK AO2 SLP958 T00280017
PALH 241253Z 00000KT 10SM OVC070 03/02 A2939 RMK AO2 SLP953 T00280017
PALH 241153Z 00000KT 10SM OVC075 03/01 A2937 RMK AO2 SLP947 T00280011 10033 20017 51022